Time;durP1;ratioP1;P1;durP2;ratioP2;P2;SDS_P1;SDS_P2;PMS_P1;PMS_P2;Temp;Humidity;BMP_temperature;BMP_pressure;BME280_temperature;BME280_humidity;BME280_pressure;Samples;Min_cycle;Max_cycle;Signal;HPM_P1;HPM_P2
2023/06/25 00:01:28;;;;;;;5.47;4.50;;;18.90;99.90;;;;;;5154258;27;20172;-67
2023/06/25 00:03:54;;;;;;;6.60;5.03;;;18.70;99.90;;;;;;5118281;27;20652;-67
2023/06/25 00:06:21;;;;;;;5.43;4.90;;;18.50;99.90;;;;;;5135333;27;20192;-67
2023/06/25 00:08:47;;;;;;;7.10;4.90;;;18.40;99.90;;;;;;5154247;27;20200;-68
2023/06/25 00:11:13;;;;;;;5.07;4.60;;;18.30;99.90;;;;;;5154284;27;20421;-67
2023/06/25 00:13:39;;;;;;;7.80;5.50;;;18.20;99.90;;;;;;5154077;27;20211;-67
2023/06/25 00:16:05;;;;;;;5.20;4.70;;;18.20;99.90;;;;;;5153991;27;20212;-67
2023/06/25 00:18:33;;;;;;;7.87;5.27;;;18.20;99.90;;;;;;5154125;27;20168;-66
2023/06/25 00:20:58;;;;;;;5.83;4.07;;;18.10;99.90;;;;;;5153994;27;20456;-67
2023/06/25 00:23:24;;;;;;;5.10;4.40;;;18.00;99.90;;;;;;5153996;27;20449;-67
2023/06/25 00:25:50;;;;;;;5.00;4.50;;;18.00;99.90;;;;;;5135277;27;20812;-66
2023/06/25 00:28:16;;;;;;;6.30;4.20;;;17.90;99.90;;;;;;5154024;27;20532;-68
2023/06/25 00:30:41;;;;;;;6.83;5.50;;;17.90;99.90;;;;;;5135272;27;20541;-68
2023/06/25 00:33:07;;;;;;;4.90;4.40;;;17.80;99.90;;;;;;5135649;27;20658;-68
2023/06/25 00:35:43;;;;;;;5.93;4.90;;;17.80;99.90;;;;;;5154078;27;20203;-67
2023/06/25 00:38:09;;;;;;;6.57;4.83;;;17.80;99.90;;;;;;5154248;27;20280;-68
2023/06/25 00:40:35;;;;;;;5.33;4.40;;;17.80;99.90;;;;;;5153907;27;20549;-67
2023/06/25 00:43:03;;;;;;;5.80;4.80;;;17.80;99.90;;;;;;5154265;27;20544;-67
2023/06/25 00:45:29;;;;;;;9.20;5.13;;;17.70;99.90;;;;;;5154189;27;20184;-67
2023/06/25 00:47:55;;;;;;;4.67;4.27;;;17.70;99.90;;;;;;5153839;27;20506;-67
2023/06/25 00:50:21;;;;;;;5.37;4.50;;;17.60;99.90;;;;;;5134883;27;20234;-67
2023/06/25 00:52:51;;;;;;;5.53;4.70;;;17.60;99.90;;;;;;5153505;27;20950;-68
2023/06/25 00:55:18;;;;;;;6.27;5.07;;;17.60;99.90;;;;;;5154016;27;20463;-67
2023/06/25 00:57:44;;;;;;;6.43;5.20;;;17.50;99.90;;;;;;5153977;27;20411;-68
2023/06/25 01:00:14;;;;;;;5.83;4.60;;;17.50;99.90;;;;;;5154046;27;20487;-67
2023/06/25 01:02:48;;;;;;;11.13;4.97;;;17.40;99.90;;;;;;5153848;27;20177;-67
2023/06/25 01:05:28;;;;;;;7.13;4.93;;;17.30;99.90;;;;;;5153876;27;20404;-68
2023/06/25 01:07:57;;;;;;;5.93;4.50;;;17.30;99.90;;;;;;5134098;27;20430;-67
2023/06/25 01:10:23;;;;;;;7.10;5.23;;;17.20;99.90;;;;;;5153018;27;20429;-67
2023/06/25 01:12:49;;;;;;;8.97;5.10;;;17.20;99.90;;;;;;5153674;27;20944;-67
2023/06/25 01:15:15;;;;;;;6.27;5.00;;;17.20;99.90;;;;;;5153601;27;20493;-67
2023/06/25 01:17:41;;;;;;;5.43;4.77;;;17.10;99.90;;;;;;5153594;27;20408;-67
2023/06/25 01:20:14;;;;;;;5.57;4.97;;;17.20;99.90;;;;;;5153503;27;20453;-67
2023/06/25 01:22:43;;;;;;;6.77;5.40;;;17.10;99.90;;;;;;5153748;27;20865;-67
2023/06/25 01:25:09;;;;;;;11.27;5.50;;;17.10;99.90;;;;;;5134688;27;20457;-67
2023/06/25 01:27:36;;;;;;;9.90;6.07;;;17.10;99.90;;;;;;5153402;27;20433;-67
2023/06/25 01:30:03;;;;;;;5.70;4.53;;;17.10;99.90;;;;;;5134817;27;20434;-67
2023/06/25 01:32:29;;;;;;;6.17;5.00;;;17.00;99.90;;;;;;5153389;27;20427;-67
2023/06/25 01:34:54;;;;;;;6.00;5.40;;;17.00;99.90;;;;;;5153266;27;20414;-67
2023/06/25 01:37:20;;;;;;;8.63;5.57;;;16.90;99.90;;;;;;5153215;27;20229;-67
2023/06/25 01:39:52;;;;;;;6.23;4.83;;;16.90;99.90;;;;;;5152771;27;20281;-67
2023/06/25 01:42:18;;;;;;;6.67;5.10;;;16.80;99.90;;;;;;5152672;27;20400;-67
2023/06/25 01:44:43;;;;;;;7.13;4.63;;;16.80;99.90;;;;;;5133947;27;20413;-69
2023/06/25 01:47:09;;;;;;;8.77;5.67;;;16.70;99.90;;;;;;5152377;27;20414;-67
2023/06/25 01:49:35;;;;;;;8.03;4.57;;;16.70;99.90;;;;;;5152770;27;20204;-68
2023/06/25 01:52:01;;;;;;;7.83;4.60;;;16.70;99.90;;;;;;5152690;27;20183;-67
2023/06/25 01:54:27;;;;;;;7.20;5.60;;;16.70;99.90;;;;;;5134235;27;20176;-67
2023/06/25 01:56:53;;;;;;;8.67;5.40;;;16.60;99.90;;;;;;5152609;27;20487;-67
2023/06/25 01:59:18;;;;;;;5.70;5.13;;;16.60;99.90;;;;;;5152598;27;20928;-67
2023/06/25 02:01:44;;;;;;;6.97;5.10;;;16.60;99.90;;;;;;5152758;27;20297;-67
2023/06/25 02:04:09;;;;;;;5.70;5.20;;;16.60;99.90;;;;;;5134239;27;20172;-65
2023/06/25 02:06:35;;;;;;;9.00;6.00;;;16.60;99.90;;;;;;5152990;27;20211;-66
2023/06/25 02:09:01;;;;;;;8.83;5.13;;;16.50;99.90;;;;;;5152765;27;20229;-66
2023/06/25 02:11:26;;;;;;;6.43;5.50;;;16.50;99.90;;;;;;5134012;27;20181;-67
2023/06/25 02:13:53;;;;;;;5.53;4.70;;;16.50;99.90;;;;;;5152820;27;20183;-66
2023/06/25 02:16:28;;;;;;;5.77;4.90;;;16.50;99.90;;;;;;5152438;27;20197;-67
2023/06/25 02:18:53;;;;;;;6.50;5.20;;;16.30;99.90;;;;;;5134217;27;20867;-66
2023/06/25 02:21:19;;;;;;;6.57;4.90;;;16.40;99.90;;;;;;5152194;27;20412;-68
2023/06/25 02:23:45;;;;;;;7.13;5.23;;;16.40;99.90;;;;;;5152135;27;20178;-67
2023/06/25 02:26:10;;;;;;;6.77;5.27;;;16.40;99.90;;;;;;5151692;27;20177;-67
2023/06/25 02:28:36;;;;;;;5.80;5.20;;;16.30;99.90;;;;;;5151921;27;20265;-67
2023/06/25 02:31:02;;;;;;;7.30;5.63;;;16.20;99.90;;;;;;5133593;27;20184;-66
2023/06/25 02:33:27;;;;;;;7.87;5.50;;;16.20;99.90;;;;;;5133603;27;20172;-66
2023/06/25 02:35:53;;;;;;;10.20;5.90;;;16.20;99.90;;;;;;5152206;27;20263;-67
2023/06/25 02:38:18;;;;;;;6.50;5.50;;;16.20;99.90;;;;;;5152170;27;20556;-67
2023/06/25 02:40:44;;;;;;;8.17;5.67;;;16.10;99.90;;;;;;5152022;27;20316;-65
2023/06/25 02:43:10;;;;;;;6.00;5.40;;;16.10;99.90;;;;;;5152122;27;20193;-67
2023/06/25 02:45:35;;;;;;;6.57;5.73;;;16.10;99.90;;;;;;5133343;27;20562;-66
2023/06/25 02:48:01;;;;;;;6.80;5.37;;;16.10;99.90;;;;;;5133323;27;20182;-66
2023/06/25 02:50:26;;;;;;;6.43;5.10;;;16.10;99.90;;;;;;5133306;27;20685;-66
2023/06/25 02:52:52;;;;;;;7.90;5.53;;;16.10;99.90;;;;;;5151603;27;20212;-67
2023/06/25 02:55:18;;;;;;;7.20;5.90;;;16.10;99.90;;;;;;5151217;27;20813;-67
2023/06/25 02:57:43;;;;;;;7.37;5.50;;;16.10;99.90;;;;;;5151155;27;20211;-67
2023/06/25 03:00:09;;;;;;;7.60;5.73;;;16.10;99.90;;;;;;5151033;27;20221;-67
2023/06/25 03:02:35;;;;;;;7.53;5.40;;;16.10;99.90;;;;;;5132623;27;20178;-67
2023/06/25 03:05:00;;;;;;;6.23;5.20;;;16.10;99.90;;;;;;5132459;27;20544;-67
2023/06/25 03:07:26;;;;;;;5.83;4.90;;;16.10;99.90;;;;;;5151039;27;20275;-67
2023/06/25 03:09:51;;;;;;;6.23;5.10;;;16.10;99.90;;;;;;5151002;27;20689;-67
2023/06/25 03:12:17;;;;;;;8.20;5.13;;;16.00;99.90;;;;;;5150818;27;20560;-67
2023/06/25 03:14:42;;;;;;;6.90;5.30;;;16.00;99.90;;;;;;5115061;27;20389;-67
2023/06/25 03:17:08;;;;;;;6.60;5.50;;;16.00;99.90;;;;;;5150614;27;20190;-67
2023/06/25 03:19:34;;;;;;;7.30;5.30;;;15.90;99.90;;;;;;5132081;27;20202;-67
2023/06/25 03:22:00;;;;;;;6.33;5.13;;;15.90;99.90;;;;;;5150430;27;20571;-67
2023/06/25 03:24:25;;;;;;;9.67;5.83;;;15.90;99.90;;;;;;5150711;27;20239;-67
2023/06/25 03:26:51;;;;;;;8.03;6.07;;;15.90;99.90;;;;;;5150455;27;20555;-67
2023/06/25 03:29:17;;;;;;;8.37;5.40;;;15.90;99.90;;;;;;5150567;27;20210;-67
2023/06/25 03:31:43;;;;;;;6.97;5.90;;;15.90;99.90;;;;;;5149948;27;20769;-67
2023/06/25 03:34:08;;;;;;;8.57;5.70;;;15.80;99.90;;;;;;5150725;27;20597;-67
2023/06/25 03:36:34;;;;;;;7.30;5.80;;;15.70;99.90;;;;;;5150455;27;20521;-67
2023/06/25 03:39:00;;;;;;;6.93;5.50;;;15.70;99.90;;;;;;5150450;27;20233;-67
2023/06/25 03:41:25;;;;;;;6.63;5.87;;;15.70;99.90;;;;;;5131797;27;20172;-66
2023/06/25 03:43:51;;;;;;;6.70;5.73;;;15.70;99.90;;;;;;5131609;27;20636;-67
2023/06/25 03:46:17;;;;;;;7.00;5.33;;;15.70;99.90;;;;;;5150125;27;20721;-67
2023/06/25 03:48:43;;;;;;;8.10;5.90;;;15.70;99.90;;;;;;5131492;27;20539;-67
2023/06/25 03:51:09;;;;;;;7.90;6.30;;;15.70;99.90;;;;;;5150242;27;20532;-66
2023/06/25 03:53:35;;;;;;;7.50;5.77;;;15.70;99.90;;;;;;5150272;27;20422;-67
2023/06/25 03:56:00;;;;;;;7.80;6.83;;;15.80;99.90;;;;;;5149977;27;20944;-70
2023/06/25 03:58:26;;;;;;;6.20;5.60;;;15.80;99.90;;;;;;5150086;27;20255;-71
2023/06/25 04:00:52;;;;;;;11.10;6.53;;;15.80;99.90;;;;;;5131262;27;20202;-70
2023/06/25 04:03:17;;;;;;;9.03;5.63;;;15.90;99.90;;;;;;5150277;27;20190;-68
2023/06/25 04:05:45;;;;;;;8.17;6.77;;;16.00;99.90;;;;;;5150333;27;20225;-70
2023/06/25 04:08:11;;;;;;;9.07;6.20;;;16.00;99.90;;;;;;5114841;27;20231;-69
2023/06/25 04:10:38;;;;;;;7.93;6.33;;;16.00;99.90;;;;;;5149899;27;20845;-69
2023/06/25 04:13:03;;;;;;;10.20;6.43;;;16.00;99.90;;;;;;5150175;27;20183;-70
2023/06/25 04:15:29;;;;;;;7.40;5.67;;;16.00;99.90;;;;;;5131334;27;20933;-69
2023/06/25 04:17:54;;;;;;;8.40;6.63;;;16.10;99.90;;;;;;5150023;27;20189;-70
2023/06/25 04:20:20;;;;;;;8.60;6.87;;;16.00;99.90;;;;;;5150037;27;21027;-70
2023/06/25 04:22:45;;;;;;;10.10;6.90;;;16.10;99.90;;;;;;5131310;27;20191;-70
2023/06/25 04:25:11;;;;;;;8.40;6.57;;;16.20;99.90;;;;;;5149998;27;20186;-69
2023/06/25 04:27:38;;;;;;;11.53;6.70;;;16.20;99.90;;;;;;5149755;27;20198;-69
2023/06/25 04:30:04;;;;;;;9.53;7.70;;;16.30;99.90;;;;;;5149900;27;20222;-70
2023/06/25 04:32:29;;;;;;;8.20;6.30;;;16.20;99.90;;;;;;5149869;27;20983;-68
2023/06/25 04:34:56;;;;;;;9.20;7.43;;;16.30;99.90;;;;;;5149655;27;20448;-70
2023/06/25 04:37:21;;;;;;;9.50;6.80;;;16.40;99.90;;;;;;5149824;27;20505;-70
2023/06/25 04:39:47;;;;;;;9.07;6.47;;;16.40;99.90;;;;;;5149542;27;20198;-70
2023/06/25 04:42:12;;;;;;;8.60;6.40;;;16.50;99.90;;;;;;5131291;27;20189;-70
2023/06/25 04:44:38;;;;;;;8.50;5.77;;;16.60;99.90;;;;;;5153398;27;20650;-70
2023/06/25 04:47:04;;;;;;;7.30;6.10;;;16.70;99.90;;;;;;5134852;27;20185;-69
2023/06/25 04:49:29;;;;;;;6.63;5.73;;;16.80;99.90;;;;;;5153479;27;20220;-69
2023/06/25 04:51:55;;;;;;;9.50;7.30;;;16.90;99.90;;;;;;5153654;27;20185;-69
2023/06/25 04:54:20;;;;;;;13.43;7.97;;;16.90;99.90;;;;;;5153544;27;20200;-70
2023/06/25 04:56:46;;;;;;;7.67;6.50;;;16.80;99.90;;;;;;5153392;27;20227;-71
2023/06/25 04:59:12;;;;;;;7.60;6.63;;;17.00;99.90;;;;;;5153588;27;20222;-69
2023/06/25 05:01:37;;;;;;;6.43;5.50;;;17.10;99.90;;;;;;5153464;27;20210;-69
2023/06/25 05:04:03;;;;;;;7.20;6.47;;;17.10;99.90;;;;;;5153265;27;20183;-69
2023/06/25 05:06:29;;;;;;;10.23;6.40;;;17.30;99.90;;;;;;5153117;27;20620;-70
2023/06/25 05:08:55;;;;;;;7.00;6.30;;;17.30;99.90;;;;;;5153401;27;20443;-70
2023/06/25 05:11:21;;;;;;;14.43;6.33;;;17.40;99.90;;;;;;5134336;27;20635;-69
2023/06/25 05:13:47;;;;;;;9.73;7.40;;;17.50;99.90;;;;;;5152967;27;20423;-70
2023/06/25 05:16:13;;;;;;;10.27;6.53;;;17.50;99.90;;;;;;5152936;27;20270;-69
2023/06/25 05:18:39;;;;;;;8.67;7.07;;;17.60;99.90;;;;;;5152961;27;20541;-69
2023/06/25 05:21:05;;;;;;;6.60;5.77;;;17.80;99.90;;;;;;5152909;27;20208;-70
2023/06/25 05:23:38;;;;;;;6.73;5.80;;;17.90;99.90;;;;;;5134211;27;20453;-69
2023/06/25 05:26:04;;;;;;;8.23;6.43;;;18.10;99.90;;;;;;5152843;27;20183;-69
2023/06/25 05:28:29;;;;;;;6.43;5.80;;;18.20;99.90;;;;;;5152804;27;20435;-70
2023/06/25 05:30:55;;;;;;;7.57;5.93;;;18.40;99.90;;;;;;5133855;27;20233;-70
2023/06/25 05:33:20;;;;;;;7.23;5.83;;;18.70;99.90;;;;;;5152583;27;20203;-70
2023/06/25 05:35:46;;;;;;;6.23;5.67;;;18.80;99.90;;;;;;5152291;27;20212;-69
2023/06/25 05:38:12;;;;;;;7.57;6.33;;;18.90;99.90;;;;;;5133622;27;20208;-70
2023/06/25 05:40:37;;;;;;;9.33;6.20;;;19.10;99.90;;;;;;5133646;27;20196;-70
2023/06/25 05:43:03;;;;;;;7.27;5.87;;;19.30;99.90;;;;;;5152420;27;20191;-70
2023/06/25 05:45:28;;;;;;;10.77;6.77;;;19.30;99.90;;;;;;5152203;27;20191;-70
2023/06/25 05:47:54;;;;;;;6.67;5.80;;;19.40;99.90;;;;;;5133672;27;20629;-70
2023/06/25 05:50:19;;;;;;;7.97;6.53;;;19.50;99.90;;;;;;5152108;27;20210;-70
2023/06/25 05:52:46;;;;;;;12.30;6.37;;;19.50;99.90;;;;;;5152091;27;20275;-70
2023/06/25 05:55:12;;;;;;;9.50;6.33;;;19.60;99.90;;;;;;5151253;27;20231;-70
2023/06/25 05:57:37;;;;;;;7.20;6.40;;;19.70;99.90;;;;;;5152082;27;20459;-70
2023/06/25 06:00:04;;;;;;;10.20;6.20;;;19.80;99.90;;;;;;5133133;27;20499;-70
2023/06/25 06:02:29;;;;;;;7.40;6.30;;;19.90;99.90;;;;;;5152134;27;20180;-70
2023/06/25 06:04:55;;;;;;;6.87;6.00;;;20.00;99.90;;;;;;5152034;27;20471;-70
2023/06/25 06:07:20;;;;;;;7.57;6.53;;;20.10;99.90;;;;;;5133345;27;20177;-72
2023/06/25 06:09:46;;;;;;;7.37;6.57;;;20.20;99.90;;;;;;5151834;27;20215;-69
2023/06/25 06:12:11;;;;;;;6.53;5.53;;;20.30;99.90;;;;;;5151857;27;20180;-69
2023/06/25 06:14:38;;;;;;;7.97;5.80;;;20.40;99.90;;;;;;5133119;27;20230;-70
2023/06/25 06:17:05;;;;;;;9.53;6.20;;;20.60;99.90;;;;;;5132946;27;20214;-70
2023/06/25 06:19:30;;;;;;;6.47;5.77;;;20.80;99.90;;;;;;5151534;27;20862;-70
2023/06/25 06:21:56;;;;;;;7.70;6.17;;;20.90;99.90;;;;;;5151747;27;20418;-70
2023/06/25 06:24:22;;;;;;;8.33;6.87;;;21.00;99.90;;;;;;5132758;27;20196;-70
2023/06/25 06:26:49;;;;;;;7.50;5.80;;;21.00;99.90;;;;;;5115526;27;20287;-69
2023/06/25 06:29:15;;;;;;;6.40;5.17;;;21.20;99.90;;;;;;5132728;27;20207;-69
2023/06/25 06:31:40;;;;;;;7.87;6.37;;;21.30;99.90;;;;;;5151318;27;20430;-69
2023/06/25 06:34:06;;;;;;;5.90;5.33;;;21.40;99.90;;;;;;5151301;27;20432;-70
2023/06/25 06:36:32;;;;;;;7.63;6.17;;;21.60;99.90;;;;;;5152208;27;20608;-70
2023/06/25 06:38:57;;;;;;;8.33;7.07;;;21.80;99.90;;;;;;5151126;27;20285;-70
2023/06/25 06:41:23;;;;;;;6.53;5.67;;;21.80;99.90;;;;;;5151415;27;20211;-70
2023/06/25 06:43:48;;;;;;;6.43;5.83;;;21.90;99.90;;;;;;5151568;27;20196;-71
2023/06/25 06:46:14;;;;;;;6.93;6.33;;;21.80;99.90;;;;;;5132228;27;20196;-71
2023/06/25 06:48:39;;;;;;;9.27;5.30;;;22.00;99.90;;;;;;5150950;27;20199;-70
2023/06/25 06:51:05;;;;;;;6.00;5.40;;;22.10;99.90;;;;;;5151039;27;20191;-71
2023/06/25 06:53:30;;;;;;;12.27;6.67;;;22.20;99.90;;;;;;5115201;27;20184;-71
2023/06/25 06:55:56;;;;;;;6.13;5.53;;;22.30;99.90;;;;;;5132126;27;20204;-70
2023/06/25 06:58:22;;;;;;;8.10;6.23;;;22.40;99.90;;;;;;5150974;27;20878;-70
2023/06/25 07:00:47;;;;;;;7.77;6.00;;;22.40;99.90;;;;;;5150620;27;20307;-69
2023/06/25 07:03:13;;;;;;;7.03;5.63;;;22.60;99.90;;;;;;5132091;27;20808;-70
2023/06/25 07:05:38;;;;;;;6.30;5.70;;;22.70;99.90;;;;;;5132017;27;20180;-70
2023/06/25 07:08:05;;;;;;;5.70;5.20;;;22.80;99.90;;;;;;5132050;27;20186;-70
2023/06/25 07:10:31;;;;;;;6.70;5.63;;;22.90;99.90;;;;;;5150593;27;20209;-70
2023/06/25 07:12:56;;;;;;;6.77;5.90;;;23.10;99.90;;;;;;5132008;27;21019;-69
2023/06/25 07:15:22;;;;;;;6.90;6.20;;;23.10;99.90;;;;;;5131486;27;20218;-69
2023/06/25 07:17:47;;;;;;;7.50;6.03;;;23.10;99.90;;;;;;5150646;27;20181;-69
2023/06/25 07:20:13;;;;;;;7.57;5.60;;;23.20;99.90;;;;;;5131891;27;20210;-69
2023/06/25 07:22:40;;;;;;;7.53;6.10;;;23.30;99.90;;;;;;5131757;27;20557;-71
2023/06/25 07:25:07;;;;;;;8.70;5.97;;;23.30;99.90;;;;;;5150443;27;20176;-69
2023/06/25 07:27:33;;;;;;;7.97;5.87;;;23.30;99.90;;;;;;5150198;27;20450;-70
2023/06/25 07:29:59;;;;;;;7.97;5.60;;;23.40;99.90;;;;;;5150233;27;20440;-69
2023/06/25 07:32:25;;;;;;;6.60;5.80;;;23.40;99.60;;;;;;5150224;27;21015;-70
2023/06/25 07:34:50;;;;;;;6.90;5.83;;;23.50;99.90;;;;;;5150349;27;20187;-69
2023/06/25 07:37:16;;;;;;;6.17;5.57;;;23.50;99.90;;;;;;5150236;27;20213;-69
2023/06/25 07:39:41;;;;;;;11.63;6.20;;;23.60;99.90;;;;;;5150200;27;20203;-68
2023/06/25 07:42:07;;;;;;;9.73;6.87;;;23.70;99.70;;;;;;5131581;27;20178;-68
2023/06/25 07:44:32;;;;;;;10.20;6.57;;;23.80;99.50;;;;;;5150114;27;20556;-68
2023/06/25 07:46:58;;;;;;;10.20;6.63;;;23.80;99.90;;;;;;5150189;27;20563;-68
2023/06/25 07:49:24;;;;;;;8.57;6.07;;;23.90;99.80;;;;;;5150104;27;20207;-70
2023/06/25 07:51:53;;;;;;;6.53;5.93;;;23.90;99.20;;;;;;5131488;27;20659;-69
2023/06/25 07:54:19;;;;;;;7.83;6.10;;;24.00;98.80;;;;;;5150174;27;20217;-70
2023/06/25 07:56:45;;;;;;;8.87;6.00;;;24.00;98.70;;;;;;5149774;27;20501;-70
2023/06/25 07:59:14;;;;;;;5.80;5.20;;;24.10;98.60;;;;;;5149501;27;20208;-68
2023/06/25 08:01:40;;;;;;;6.13;5.47;;;24.20;98.40;;;;;;5149363;27;20699;-69
2023/06/25 08:04:06;;;;;;;8.40;5.60;;;24.40;98.00;;;;;;5130702;27;20499;-69
2023/06/25 08:06:31;;;;;;;5.77;5.23;;;24.50;97.20;;;;;;5149296;27;20686;-69
2023/06/25 08:08:57;;;;;;;7.63;5.83;;;24.50;97.90;;;;;;5149104;27;20215;-70
2023/06/25 08:11:22;;;;;;;6.60;4.60;;;24.60;97.40;;;;;;5130701;27;20199;-69
2023/06/25 08:13:48;;;;;;;8.00;5.77;;;24.80;94.10;;;;;;5149214;27;20182;-70
2023/06/25 08:16:14;;;;;;;6.30;4.80;;;25.00;94.70;;;;;;5130039;27;20219;-70
2023/06/25 08:18:39;;;;;;;5.70;4.80;;;25.10;91.80;;;;;;5132565;27;20187;-69
2023/06/25 08:21:05;;;;;;;7.60;4.87;;;25.20;90.00;;;;;;5153348;27;20858;-70
2023/06/25 08:23:30;;;;;;;5.53;4.53;;;25.40;90.60;;;;;;5134219;27;20191;-70
2023/06/25 08:25:56;;;;;;;7.13;5.23;;;25.50;89.50;;;;;;5152865;27;20182;-70
2023/06/25 08:28:22;;;;;;;7.03;4.70;;;25.60;86.60;;;;;;5152780;27;20672;-70
2023/06/25 08:30:48;;;;;;;12.33;4.73;;;25.70;87.50;;;;;;5152507;27;20208;-68
2023/06/25 08:33:13;;;;;;;5.20;4.70;;;25.70;85.60;;;;;;5133810;27;20195;-69
2023/06/25 08:35:39;;;;;;;5.53;4.93;;;25.90;85.40;;;;;;5133655;27;20319;-70
2023/06/25 08:38:04;;;;;;;6.97;4.27;;;25.90;84.10;;;;;;5152574;27;20195;-70
2023/06/25 08:40:31;;;;;;;6.73;5.23;;;26.00;82.70;;;;;;5152314;27;20235;-70
2023/06/25 08:42:57;;;;;;;5.47;4.30;;;26.20;85.70;;;;;;5152580;27;20208;-70
2023/06/25 08:45:23;;;;;;;5.93;5.13;;;26.20;88.40;;;;;;5152847;27;20424;-70
2023/06/25 08:47:54;;;;;;;7.30;4.43;;;26.30;88.80;;;;;;5153108;27;20421;-70
2023/06/25 08:50:20;;;;;;;5.27;4.77;;;26.50;84.60;;;;;;5152989;27;20204;-69
2023/06/25 08:52:45;;;;;;;7.00;4.40;;;26.80;87.40;;;;;;5152856;27;20917;-70
2023/06/25 08:55:13;;;;;;;5.00;4.50;;;27.00;85.30;;;;;;5152926;27;20232;-71
2023/06/25 08:57:39;;;;;;;5.70;5.10;;;27.30;92.20;;;;;;5152915;27;20177;-69
2023/06/25 09:00:08;;;;;;;6.47;4.53;;;27.30;99.90;;;;;;5152572;27;20444;-69
2023/06/25 09:02:34;;;;;;;6.60;5.27;;;27.50;99.90;;;;;;5152687;27;20891;-69
2023/06/25 09:05:09;;;;;;;5.20;4.70;;;27.60;99.90;;;;;;5116802;27;20429;-68
2023/06/25 09:07:43;;;;;;;7.90;5.17;;;27.70;97.90;;;;;;5152921;27;20401;-70
2023/06/25 09:10:09;;;;;;;6.07;5.50;;;27.80;99.90;;;;;;5152501;27;20445;-69
2023/06/25 09:12:35;;;;;;;6.43;5.33;;;27.90;99.90;;;;;;5133580;27;20429;-69
2023/06/25 09:15:01;;;;;;;10.43;4.47;;;28.00;99.90;;;;;;5133431;27;20195;-70
2023/06/25 09:17:26;;;;;;;5.50;5.00;;;28.20;99.90;;;;;;5133873;27;20417;-70
2023/06/25 09:19:52;;;;;;;6.73;5.10;;;28.20;99.90;;;;;;5133321;27;20211;-70
2023/06/25 09:22:18;;;;;;;5.70;4.50;;;28.40;99.90;;;;;;5152248;27;20779;-70
2023/06/25 09:24:46;;;;;;;5.53;4.93;;;28.50;99.90;;;;;;5133463;27;20191;-69
2023/06/25 09:27:12;;;;;;;5.10;4.60;;;28.20;99.90;;;;;;5152030;27;20200;-70
2023/06/25 09:29:39;;;;;;;6.33;4.70;;;28.40;99.90;;;;;;5150877;27;21020;-69
2023/06/25 09:32:08;;;;;;;6.70;5.27;;;28.40;99.90;;;;;;5152225;27;20901;-68
2023/06/25 09:34:34;;;;;;;5.53;4.60;;;27.90;99.90;;;;;;5152141;27;20451;-68
2023/06/25 09:37:02;;;;;;;5.93;5.23;;;28.30;99.90;;;;;;5151881;27;20465;-69
2023/06/25 09:39:28;;;;;;;5.40;4.90;;;28.20;99.90;;;;;;5151839;27;20196;-69
2023/06/25 09:41:54;;;;;;;4.57;4.27;;;28.20;99.90;;;;;;5132925;27;20425;-69
2023/06/25 09:44:22;;;;;;;6.70;4.90;;;28.80;99.90;;;;;;5133077;27;20233;-69
2023/06/25 09:46:52;;;;;;;5.10;4.60;;;28.90;99.90;;;;;;5151722;27;20417;-69
2023/06/25 09:49:19;;;;;;;5.87;5.27;;;28.60;99.90;;;;;;5151418;27;20957;-69
2023/06/25 09:51:49;;;;;;;8.20;5.00;;;29.10;99.90;;;;;;5151397;27;21012;-69
2023/06/25 09:54:18;;;;;;;5.13;4.73;;;29.10;99.90;;;;;;5151404;27;20425;-70
2023/06/25 09:56:45;;;;;;;8.30;5.33;;;29.30;99.90;;;;;;5151156;27;20461;-69
2023/06/25 09:59:12;;;;;;;7.30;5.13;;;29.40;99.90;;;;;;5132399;27;20456;-69
2023/06/25 10:01:38;;;;;;;7.43;5.33;;;29.30;99.90;;;;;;5151167;27;20432;-68
2023/06/25 10:04:04;;;;;;;6.13;5.53;;;29.60;99.90;;;;;;5151014;27;20414;-66
2023/06/25 10:06:30;;;;;;;7.80;5.73;;;29.70;99.90;;;;;;5151248;27;20417;-67
2023/06/25 10:08:56;;;;;;;8.93;5.93;;;29.70;99.90;;;;;;5152516;27;20253;-67
2023/06/25 10:11:22;;;;;;;6.07;5.47;;;29.70;99.90;;;;;;5151415;27;20413;-65
2023/06/25 10:13:48;;;;;;;7.13;5.13;;;29.90;99.90;;;;;;5151544;27;20267;-68
2023/06/25 10:16:18;;;;;;;9.80;6.20;;;29.80;99.90;;;;;;5151243;27;20210;-69
2023/06/25 10:18:46;;;;;;;7.30;5.60;;;29.50;99.90;;;;;;5115937;27;20435;-70
2023/06/25 10:21:19;;;;;;;6.27;5.67;;;29.20;99.90;;;;;;5151722;27;20417;-68
2023/06/25 10:23:55;;;;;;;5.40;4.90;;;29.00;99.90;;;;;;5151693;27;20412;-69
2023/06/25 10:26:25;;;;;;;5.73;5.10;;;29.00;99.90;;;;;;5151574;27;20484;-69
2023/06/25 10:28:51;;;;;;;5.17;4.67;;;29.20;99.90;;;;;;5132815;27;20432;-69
2023/06/25 10:31:17;;;;;;;8.60;5.47;;;29.40;99.90;;;;;;5151774;27;21452;-68
2023/06/25 10:33:43;;;;;;;6.57;5.93;;;29.10;99.90;;;;;;5151683;27;20179;-69
2023/06/25 10:36:10;;;;;;;6.50;5.03;;;29.00;99.90;;;;;;5151342;27;20464;-69
2023/06/25 10:38:36;;;;;;;5.87;5.30;;;29.10;99.90;;;;;;5150681;27;20644;-72
2023/06/25 10:41:02;;;;;;;6.80;5.93;;;28.90;99.90;;;;;;5114555;27;20526;-71
2023/06/25 10:43:27;;;;;;;8.10;5.90;;;29.00;99.90;;;;;;5131564;27;20509;-69
2023/06/25 10:45:55;;;;;;;6.77;5.37;;;29.20;99.90;;;;;;5131851;27;20574;-67
2023/06/25 10:48:22;;;;;;;6.10;5.50;;;29.50;99.90;;;;;;5150270;27;20274;-69
2023/06/25 10:50:48;;;;;;;6.90;6.30;;;29.60;99.90;;;;;;5150388;27;20732;-69
2023/06/25 10:53:19;;;;;;;6.80;5.97;;;29.60;99.90;;;;;;5150183;27;20417;-67
2023/06/25 10:55:52;;;;;;;6.30;5.70;;;29.50;99.90;;;;;;5150116;27;21381;-69
2023/06/25 10:58:20;;;;;;;9.53;6.40;;;29.40;99.90;;;;;;5150049;27;20422;-68
2023/06/25 11:00:56;;;;;;;6.63;6.03;;;29.20;99.90;;;;;;5150197;27;20489;-67
2023/06/25 11:03:22;;;;;;;7.80;6.50;;;29.40;99.90;;;;;;5150117;27;20499;-70
2023/06/25 11:05:48;;;;;;;6.70;5.93;;;29.40;99.90;;;;;;5150296;27;20415;-69
2023/06/25 11:08:14;;;;;;;6.97;6.20;;;29.60;99.90;;;;;;5131266;27;20417;-71
2023/06/25 11:10:41;;;;;;;11.03;6.40;;;29.50;99.90;;;;;;5150011;27;20452;-70
2023/06/25 11:13:11;;;;;;;6.13;5.53;;;29.50;99.90;;;;;;5149451;27;20430;-70
2023/06/25 11:15:40;;;;;;;7.83;5.67;;;29.40;99.90;;;;;;5149291;27;21042;-70
2023/06/25 11:18:10;;;;;;;7.13;6.43;;;29.60;99.90;;;;;;5149066;27;20884;-68
2023/06/25 11:20:39;;;;;;;7.63;5.83;;;29.80;99.90;;;;;;5149345;27;20422;-68
2023/06/25 11:23:05;;;;;;;6.30;5.80;;;29.70;99.90;;;;;;5149689;27;20413;-66
2023/06/25 11:25:31;;;;;;;8.07;7.00;;;29.70;99.90;;;;;;5149943;27;20425;-69
2023/06/25 11:28:02;;;;;;;6.90;6.27;;;29.70;99.90;;;;;;5131186;27;20206;-69
2023/06/25 11:30:28;;;;;;;7.03;6.33;;;29.80;99.90;;;;;;5149785;27;20445;-70
2023/06/25 11:32:55;;;;;;;7.03;6.13;;;29.80;99.90;;;;;;5149520;27;20973;-70
2023/06/25 11:35:24;;;;;;;7.93;6.60;;;29.80;99.90;;;;;;5130652;27;20422;-70
2023/06/25 11:37:49;;;;;;;6.23;5.63;;;30.00;99.90;;;;;;5149926;27;21296;-68
2023/06/25 11:40:23;;;;;;;7.67;6.40;;;30.10;99.90;;;;;;5149470;27;20970;-72
2023/06/25 11:42:49;;;;;;;8.07;6.00;;;30.10;99.90;;;;;;5131424;27;20188;-76
2023/06/25 11:45:15;;;;;;;8.43;5.77;;;30.10;99.90;;;;;;5150031;27;20791;-72
2023/06/25 11:47:50;;;;;;;8.43;7.20;;;30.10;99.90;;;;;;5114062;27;20622;-72
2023/06/25 11:50:17;;;;;;;8.20;6.47;;;29.90;99.90;;;;;;5149300;27;20440;-70
2023/06/25 11:52:44;;;;;;;6.60;6.00;;;29.80;99.90;;;;;;5148927;27;20793;-71
2023/06/25 11:55:11;;;;;;;8.13;6.03;;;29.90;99.90;;;;;;5149855;27;20418;-68
2023/06/25 11:57:39;;;;;;;7.60;6.90;;;29.90;99.90;;;;;;5131328;27;20869;-72
2023/06/25 12:00:05;;;;;;;7.13;6.50;;;29.90;99.90;;;;;;5130807;27;20866;-70
2023/06/25 12:02:31;;;;;;;8.67;6.70;;;29.80;99.90;;;;;;5149410;27;20915;-68
2023/06/25 12:04:57;;;;;;;6.37;5.77;;;29.90;99.90;;;;;;5149304;27;20414;-73
2023/06/25 12:07:22;;;;;;;6.93;6.23;;;29.80;99.90;;;;;;5149551;27;20429;-70
2023/06/25 12:09:48;;;;;;;7.20;6.53;;;29.90;99.90;;;;;;5149541;27;20200;-72
2023/06/25 12:12:13;;;;;;;8.17;6.30;;;29.90;99.90;;;;;;5130565;27;20177;-70
2023/06/25 12:14:39;;;;;;;7.20;6.50;;;30.00;99.90;;;;;;5130627;27;20198;-73
2023/06/25 12:17:05;;;;;;;9.03;7.20;;;29.90;99.90;;;;;;5130263;27;20212;-72
2023/06/25 12:19:31;;;;;;;7.00;6.30;;;29.70;99.90;;;;;;5129823;27;20212;-70
2023/06/25 12:21:56;;;;;;;12.07;6.50;;;29.60;99.90;;;;;;5148542;27;20259;-71
2023/06/25 12:24:23;;;;;;;7.10;6.03;;;29.60;99.90;;;;;;5148563;27;20289;-70
2023/06/25 12:26:49;;;;;;;9.47;7.20;;;29.70;99.90;;;;;;5148153;27;20722;-70
2023/06/25 12:29:14;;;;;;;7.60;6.90;;;29.70;99.90;;;;;;5129784;27;20445;-71
2023/06/25 12:31:40;;;;;;;9.77;7.37;;;29.70;99.90;;;;;;5148675;27;20222;-70
2023/06/25 12:34:06;;;;;;;7.20;6.50;;;29.90;99.90;;;;;;5131871;27;20192;-69
2023/06/25 12:36:31;;;;;;;7.97;7.17;;;29.80;99.90;;;;;;5149346;27;20208;-70
2023/06/25 12:38:57;;;;;;;7.20;6.03;;;29.90;99.90;;;;;;5149023;27;20206;-72
2023/06/25 12:41:23;;;;;;;7.20;6.20;;;29.90;99.90;;;;;;5148912;27;20192;-70